createdAt,value
2023-03-01T00:00:28.548Z,0.47
2023-03-01T00:01:28.539Z,0.40
2023-03-01T00:02:28.606Z,0.46
2023-03-01T00:03:28.620Z,0.49
2023-03-01T00:04:28.519Z,0.50
2023-03-01T00:05:28.859Z,0.55
2023-03-01T00:06:28.799Z,0.59
2023-03-01T00:07:28.491Z,0.55
2023-03-01T00:08:28.483Z,0.60
2023-03-01T00:09:28.476Z,0.60
2023-03-01T00:10:28.466Z,0.47
2023-03-01T00:11:28.460Z,0.63
2023-03-01T00:12:28.458Z,0.60
2023-03-01T00:13:28.468Z,0.60
2023-03-01T00:14:28.436Z,0.59
2023-03-01T00:15:28.427Z,0.66
2023-03-01T00:16:28.917Z,0.52
2023-03-01T00:17:28.412Z,0.58
2023-03-01T00:18:28.409Z,0.65
2023-03-01T00:19:28.400Z,0.52
2023-03-01T00:20:28.394Z,0.56
2023-03-01T00:21:28.385Z,0.52
2023-03-01T00:22:28.371Z,0.60
2023-03-01T00:23:28.363Z,0.56
2023-03-01T00:24:28.356Z,0.55
2023-03-01T00:25:28.349Z,0.58
2023-03-01T00:26:28.772Z,0.55
2023-03-01T00:27:28.336Z,0.56
2023-03-01T00:28:28.335Z,0.47
2023-03-01T00:29:28.335Z,0.59
2023-03-01T00:30:28.374Z,0.55
2023-03-01T00:31:28.306Z,0.49
2023-03-01T00:32:28.301Z,0.43
2023-03-01T00:33:28.284Z,0.39
2023-03-01T00:34:28.277Z,0.46
2023-03-01T00:35:28.347Z,0.34
2023-03-01T00:36:28.671Z,0.44
2023-03-01T00:37:28.252Z,0.32
2023-03-01T00:38:28.256Z,0.36
2023-03-01T00:39:28.236Z,0.36
2023-03-01T00:40:28.232Z,0.28
2023-03-01T00:41:28.219Z,0.25
2023-03-01T00:42:28.213Z,0.26
2023-03-01T00:43:28.206Z,0.28
2023-03-01T00:44:28.194Z,0.12
2023-03-01T00:45:28.209Z,0.16
2023-03-01T00:46:28.429Z,0.16
2023-03-01T00:47:28.174Z,0.12
2023-03-01T00:48:28.163Z,0.08
2023-03-01T00:49:28.159Z,0.12
2023-03-01T00:50:28.148Z,0.11
2023-03-01T00:51:28.147Z,0.04
2023-03-01T00:52:28.132Z,0.00
2023-03-01T00:53:28.124Z,0.03
2023-03-01T00:54:28.156Z,-0.06
2023-03-01T00:55:28.106Z,-0.07
2023-03-01T00:56:28.356Z,-0.13
2023-03-01T00:57:28.093Z,-0.13
2023-03-01T00:58:28.082Z,-0.08
2023-03-01T00:59:28.077Z,-0.25
2023-03-01T01:00:28.078Z,-0.20
2023-03-01T01:01:28.228Z,-0.25
2023-03-01T01:02:28.169Z,-0.28
2023-03-01T01:03:28.081Z,-0.34
2023-03-01T01:04:28.034Z,-0.31
2023-03-01T01:05:28.024Z,-0.35
2023-03-01T01:06:28.658Z,-0.34
2023-03-01T01:07:28.010Z,-0.23
2023-03-01T01:08:28.005Z,-0.31
2023-03-01T01:09:27.997Z,-0.34
2023-03-01T01:10:27.985Z,-0.35
2023-03-01T01:11:27.993Z,-0.38
2023-03-01T01:12:27.965Z,-0.28
2023-03-01T01:13:27.961Z,-0.36
2023-03-01T01:14:27.955Z,-0.36
2023-03-01T01:15:27.939Z,-0.35
2023-03-01T01:16:28.017Z,-0.43
2023-03-01T01:17:27.945Z,-0.34
2023-03-01T01:18:27.932Z,-0.39
2023-03-01T01:19:27.909Z,-0.34
2023-03-01T01:20:27.918Z,-0.31
2023-03-01T01:21:27.887Z,-0.32
2023-03-01T01:22:27.882Z,-0.28
2023-03-01T01:23:27.873Z,-0.32
2023-03-01T01:24:27.866Z,-0.32
2023-03-01T01:25:27.857Z,-0.21
2023-03-01T01:26:27.891Z,-0.21
2023-03-01T01:27:27.841Z,-0.20
2023-03-01T01:28:27.831Z,-0.15
2023-03-01T01:29:27.823Z,-0.17
2023-03-01T01:30:27.817Z,-0.15
2023-03-01T01:31:27.863Z,0.04
2023-03-01T01:32:27.807Z,0.05
2023-03-01T01:33:27.809Z,0.10
2023-03-01T01:34:27.778Z,0.15
2023-03-01T01:35:27.818Z,0.05
2023-03-01T01:36:28.107Z,0.01
2023-03-01T01:37:27.755Z,0.03
2023-03-01T01:38:27.745Z,-0.13
2023-03-01T01:39:27.738Z,-0.17
2023-03-01T01:40:27.741Z,-0.21
2023-03-01T01:41:27.723Z,-0.29
2023-03-01T01:42:27.710Z,-0.36
2023-03-01T01:43:27.707Z,-0.52
2023-03-01T01:44:27.693Z,-0.54
2023-03-01T01:45:27.687Z,-0.52
2023-03-01T01:46:27.844Z,-0.59
2023-03-01T01:47:27.670Z,-0.64
2023-03-01T01:48:27.659Z,-0.65
2023-03-01T01:49:27.676Z,-0.64
2023-03-01T01:50:27.641Z,-0.65
2023-03-01T01:51:27.680Z,-0.65
2023-03-01T01:52:27.630Z,-0.70
2023-03-01T01:53:27.622Z,-0.67
2023-03-01T01:54:27.622Z,-0.68
2023-03-01T01:55:27.604Z,-0.65
2023-03-01T01:56:27.750Z,-0.61
2023-03-01T01:57:27.582Z,-0.64
2023-03-01T01:58:27.576Z,-0.54
2023-03-01T01:59:27.569Z,-0.54
2023-03-01T02:00:27.561Z,-0.54
2023-03-01T02:01:27.564Z,-0.52
2023-03-01T02:02:27.606Z,-0.41
2023-03-01T02:03:27.652Z,-0.47
2023-03-01T02:04:27.526Z,-0.52
2023-03-01T02:05:27.537Z,-0.36
2023-03-01T02:06:27.517Z,-0.36
2023-03-01T02:07:27.508Z,-0.36
2023-03-01T02:08:27.500Z,-0.31
2023-03-01T02:09:27.482Z,-0.38
2023-03-01T02:10:27.477Z,-0.32
2023-03-01T02:11:27.468Z,-0.34
2023-03-01T02:12:27.461Z,-0.32
2023-03-01T02:13:27.448Z,-0.21
2023-03-01T02:14:27.451Z,-0.32
2023-03-01T02:15:27.431Z,-0.23
2023-03-01T02:16:27.562Z,-0.14
2023-03-01T02:17:27.417Z,-0.23
2023-03-01T02:18:27.410Z,-0.15
2023-03-01T02:19:27.405Z,-0.14
2023-03-01T02:20:27.390Z,-0.14
2023-03-01T02:21:27.508Z,-0.11
2023-03-01T02:22:27.429Z,-0.15
2023-03-01T02:23:27.373Z,-0.11
2023-03-01T02:24:27.368Z,-0.14
2023-03-01T02:25:27.347Z,-0.10
2023-03-01T02:26:27.340Z,-0.11
2023-03-01T02:27:27.337Z,-0.11
2023-03-01T02:28:27.323Z,-0.13
2023-03-01T02:29:27.314Z,-0.07
2023-03-01T02:30:27.316Z,-0.07
2023-03-01T02:31:27.364Z,-0.13
2023-03-01T02:32:27.317Z,-0.13
2023-03-01T02:33:27.297Z,-0.13
2023-03-01T02:34:27.278Z,-0.13
2023-03-01T02:35:27.373Z,-0.15
2023-03-01T02:36:27.374Z,-0.25
2023-03-01T02:37:27.268Z,-0.14
2023-03-01T02:38:27.236Z,-0.20
2023-03-01T02:39:27.227Z,-0.17
2023-03-01T02:40:27.224Z,-0.21
2023-03-01T02:41:27.217Z,-0.20
2023-03-01T02:42:27.497Z,-0.23
2023-03-01T02:43:27.196Z,-0.15
2023-03-01T02:44:27.196Z,-0.23
2023-03-01T02:45:27.177Z,-0.28
2023-03-01T02:46:27.243Z,-0.28
2023-03-01T02:47:27.164Z,-0.23
2023-03-01T02:48:27.149Z,-0.28
2023-03-01T02:49:27.146Z,-0.28
2023-03-01T02:50:27.144Z,-0.23
2023-03-01T02:51:27.122Z,-0.31
2023-03-01T02:52:27.127Z,-0.28
2023-03-01T02:53:27.126Z,-0.29
2023-03-01T02:54:27.098Z,-0.32
2023-03-01T02:55:27.088Z,-0.29
2023-03-01T02:56:27.082Z,-0.29
2023-03-01T02:57:27.071Z,-0.26
2023-03-01T02:58:27.065Z,-0.18
2023-03-01T02:59:27.053Z,-0.23
2023-03-01T03:00:27.057Z,-0.20
2023-03-01T03:01:27.035Z,-0.15
2023-03-01T03:02:27.030Z,-0.18
2023-03-01T03:03:27.047Z,-0.18
2023-03-01T03:04:27.010Z,-0.17
2023-03-01T03:05:27.003Z,-0.25
2023-03-01T03:06:26.996Z,-0.15
2023-03-01T03:07:26.983Z,-0.15
2023-03-01T03:08:27.030Z,-0.13
2023-03-01T03:09:26.987Z,-0.14
2023-03-01T03:10:26.959Z,-0.11
2023-03-01T03:11:26.951Z,-0.17
2023-03-01T03:12:26.944Z,-0.11
2023-03-01T03:13:26.936Z,-0.11
2023-03-01T03:14:26.930Z,-0.11
2023-03-01T03:15:26.929Z,-0.11
2023-03-01T03:16:26.980Z,-0.08
2023-03-01T03:17:26.896Z,-0.02
2023-03-01T03:18:26.892Z,0.03
2023-03-01T03:19:26.877Z,0.00
2023-03-01T03:20:26.873Z,-0.08
2023-03-01T03:21:26.864Z,0.01
2023-03-01T03:22:26.854Z,-0.02
2023-03-01T03:23:26.875Z,-0.07
2023-03-01T03:24:26.839Z,-0.02
2023-03-01T03:25:26.852Z,0.04
2023-03-01T03:26:26.838Z,0.03
2023-03-01T03:27:26.812Z,0.05
2023-03-01T03:28:26.801Z,-0.02
2023-03-01T03:29:26.791Z,-0.03
2023-03-01T03:30:26.783Z,-0.13
2023-03-01T03:31:26.840Z,-0.17
2023-03-01T03:32:26.849Z,-0.14
2023-03-01T03:33:26.775Z,-0.17
2023-03-01T03:34:26.751Z,-0.08
2023-03-01T03:35:26.748Z,-0.17
2023-03-01T03:36:26.748Z,-0.14
2023-03-01T03:37:26.721Z,-0.10
2023-03-01T03:38:26.719Z,-0.10
2023-03-01T03:39:26.709Z,-0.08
2023-03-01T03:40:26.698Z,-0.07
2023-03-01T03:41:26.711Z,-0.13
2023-03-01T03:42:26.684Z,-0.07
2023-03-01T03:43:26.675Z,-0.13
2023-03-01T03:44:26.664Z,-0.10
2023-03-01T03:45:26.721Z,-0.15
2023-03-01T03:46:26.670Z,-0.15
2023-03-01T03:47:26.654Z,-0.11
2023-03-01T03:48:26.643Z,-0.08
2023-03-01T03:49:26.624Z,-0.10
2023-03-01T03:50:26.612Z,-0.10
2023-03-01T03:51:26.606Z,0.00
2023-03-01T03:52:26.602Z,-0.20
2023-03-01T03:53:26.587Z,-0.15
2023-03-01T03:54:26.576Z,-0.17
2023-03-01T03:55:26.567Z,-0.18
2023-03-01T03:56:28.468Z,-0.25
2023-03-01T03:57:26.576Z,-0.21
2023-03-01T03:58:26.554Z,-0.17
2023-03-01T03:59:26.533Z,-0.20
2023-03-01T04:00:26.527Z,-0.15
2023-03-01T04:01:26.554Z,-0.11
2023-03-01T04:02:26.528Z,-0.25
2023-03-01T04:03:26.507Z,-0.14
2023-03-01T04:04:26.494Z,-0.21
2023-03-01T04:05:26.490Z,-0.20
2023-03-01T04:06:26.475Z,-0.10
2023-03-01T04:07:26.467Z,-0.20
2023-03-01T04:08:26.464Z,-0.11
2023-03-01T04:09:26.448Z,-0.13
2023-03-01T04:10:26.444Z,-0.13
2023-03-01T04:11:26.438Z,-0.25
2023-03-01T04:12:26.426Z,-0.25
2023-03-01T04:13:26.432Z,-0.21
2023-03-01T04:14:26.408Z,-0.18
2023-03-01T04:15:26.396Z,-0.23
2023-03-01T04:16:26.469Z,-0.18
2023-03-01T04:17:26.383Z,-0.18
2023-03-01T04:18:26.374Z,-0.34
2023-03-01T04:19:26.368Z,-0.31
2023-03-01T04:20:26.362Z,-0.29
2023-03-01T04:21:26.344Z,-0.26
2023-03-01T04:22:26.338Z,-0.32
2023-03-01T04:23:26.327Z,-0.31
2023-03-01T04:24:26.320Z,-0.28
2023-03-01T04:25:26.305Z,-0.29
2023-03-01T04:26:26.309Z,-0.31
2023-03-01T04:27:26.295Z,-0.36
2023-03-01T04:28:26.305Z,-0.38
2023-03-01T04:29:26.294Z,-0.39
2023-03-01T04:30:26.271Z,-0.26
2023-03-01T04:31:26.300Z,-0.46
2023-03-01T04:32:26.305Z,-0.46
2023-03-01T04:33:26.237Z,-0.31
2023-03-01T04:34:26.233Z,-0.34
2023-03-01T04:35:26.382Z,-0.34
2023-03-01T04:36:26.407Z,-0.31
2023-03-01T04:37:26.215Z,-0.41
2023-03-01T04:38:26.198Z,-0.39
2023-03-01T04:39:26.205Z,-0.32
2023-03-01T04:40:26.185Z,-0.34
2023-03-01T04:41:26.183Z,-0.39
2023-03-01T04:42:26.174Z,-0.29
2023-03-01T04:43:26.158Z,-0.32
2023-03-01T04:44:26.146Z,-0.39
2023-03-01T04:45:26.167Z,-0.31
2023-03-01T04:46:26.209Z,-0.32
2023-03-01T04:47:26.136Z,-0.32
2023-03-01T04:48:26.110Z,-0.32
2023-03-01T04:49:26.101Z,-0.36
2023-03-01T04:50:26.093Z,-0.32
2023-03-01T04:51:26.141Z,-0.43
2023-03-01T04:52:26.080Z,-0.38
2023-03-01T04:53:26.064Z,-0.32
2023-03-01T04:54:26.057Z,-0.47
2023-03-01T04:55:26.051Z,-0.47
2023-03-01T04:56:26.038Z,-0.47
2023-03-01T04:57:26.028Z,-0.47
2023-03-01T04:58:26.022Z,-0.43
2023-03-01T04:59:26.009Z,-0.47
2023-03-01T05:00:26.006Z,-0.44
2023-03-01T05:01:26.013Z,-0.52
2023-03-01T05:02:26.033Z,-0.61
2023-03-01T05:03:25.976Z,-0.54
2023-03-01T05:04:26.071Z,-0.52
2023-03-01T05:05:25.957Z,-0.54
2023-03-01T05:06:25.951Z,-0.53
2023-03-01T05:07:25.993Z,-0.59
2023-03-01T05:08:25.934Z,-0.57
2023-03-01T05:09:25.924Z,-0.61
2023-03-01T05:10:25.913Z,-0.53
2023-03-01T05:11:26.106Z,-0.52
2023-03-01T05:12:25.894Z,-0.52
2023-03-01T05:13:25.892Z,-0.54
2023-03-01T05:14:25.877Z,-0.53
2023-03-01T05:15:25.872Z,-0.56
2023-03-01T05:16:25.859Z,-0.49
2023-03-01T05:17:25.899Z,-0.47
2023-03-01T05:18:25.930Z,-0.49
2023-03-01T05:19:25.830Z,-0.53
2023-03-01T05:20:25.842Z,-0.53
2023-03-01T05:21:25.817Z,-0.44
2023-03-01T05:22:25.806Z,-0.53
2023-03-01T05:23:25.796Z,-0.61
2023-03-01T05:24:25.789Z,-0.50
2023-03-01T05:25:25.778Z,-0.50
2023-03-01T05:26:39.576Z,-0.57
2023-03-01T05:27:25.761Z,-0.47
2023-03-01T05:28:25.753Z,-0.41
2023-03-01T05:29:25.750Z,-0.59
2023-03-01T05:30:25.736Z,-0.49
2023-03-01T05:31:25.825Z,-0.43
2023-03-01T05:32:25.772Z,-0.50
2023-03-01T05:33:25.726Z,-0.49
2023-03-01T05:34:25.698Z,-0.53
2023-03-01T05:35:25.733Z,-0.49
2023-03-01T05:36:25.683Z,-0.52
2023-03-01T05:37:25.672Z,-0.52
2023-03-01T05:38:25.665Z,-0.54
2023-03-01T05:39:25.661Z,-0.67
2023-03-01T05:40:25.655Z,-0.53
2023-03-01T05:41:25.635Z,-0.57
2023-03-01T05:42:25.636Z,-0.62
2023-03-01T05:43:25.618Z,-0.67
2023-03-01T05:44:25.611Z,-0.62
2023-03-01T05:45:25.605Z,-0.61
2023-03-01T05:46:25.824Z,-0.57
2023-03-01T05:47:25.583Z,-0.65
2023-03-01T05:48:25.577Z,-0.57
2023-03-01T05:49:25.591Z,-0.65
2023-03-01T05:50:25.563Z,-0.67
2023-03-01T05:51:25.550Z,-0.70
2023-03-01T05:52:25.542Z,-0.67
2023-03-01T05:53:25.530Z,-0.71
2023-03-01T05:54:25.525Z,-0.72
2023-03-01T05:55:26.637Z,-0.70
2023-03-01T05:56:25.503Z,-0.71
2023-03-01T05:57:25.497Z,-0.70
2023-03-01T05:58:25.488Z,-0.71
2023-03-01T05:59:25.478Z,-0.70
2023-03-01T06:00:25.484Z,-0.74
2023-03-01T06:01:25.460Z,-0.78
2023-03-01T06:02:25.460Z,-0.77
2023-03-01T06:03:25.448Z,-0.74
2023-03-01T06:04:25.490Z,-0.77
2023-03-01T06:05:25.536Z,-0.77
2023-03-01T06:06:26.570Z,-0.74
2023-03-01T06:07:25.410Z,-0.80
2023-03-01T06:08:25.404Z,-0.83
2023-03-01T06:09:25.389Z,-0.83
2023-03-01T06:10:25.383Z,-0.77
2023-03-01T06:11:25.838Z,-0.74
2023-03-01T06:12:25.365Z,-0.77
2023-03-01T06:13:25.359Z,-0.83
2023-03-01T06:14:25.345Z,-0.75
2023-03-01T06:15:25.340Z,-0.83
2023-03-01T06:16:25.328Z,-0.80
2023-03-01T06:17:25.318Z,-0.77
2023-03-01T06:18:25.310Z,-0.82
2023-03-01T06:19:25.301Z,-0.77
2023-03-01T06:20:25.289Z,-0.85
2023-03-01T06:21:25.302Z,-0.82
2023-03-01T06:22:25.278Z,-0.78
2023-03-01T06:23:25.277Z,-0.74
2023-03-01T06:24:25.258Z,-0.77
2023-03-01T06:25:25.246Z,-0.75
2023-03-01T06:26:25.236Z,-0.77
2023-03-01T06:27:25.230Z,-0.74
2023-03-01T06:28:25.218Z,-0.85
2023-03-01T06:29:25.215Z,-0.80
2023-03-01T06:30:25.205Z,-0.74
2023-03-01T06:31:25.257Z,-0.70
2023-03-01T06:32:25.193Z,-0.74
2023-03-01T06:33:25.187Z,-0.80
2023-03-01T06:34:25.168Z,-0.72
2023-03-01T06:35:25.201Z,-0.74
2023-03-01T06:36:25.145Z,-0.82
2023-03-01T06:37:25.167Z,-0.78
2023-03-01T06:38:25.161Z,-0.75
2023-03-01T06:39:25.122Z,-0.74
2023-03-01T06:40:25.113Z,-0.77
2023-03-01T06:41:25.105Z,-0.75
2023-03-01T06:42:25.091Z,-0.77
2023-03-01T06:43:25.104Z,-0.77
2023-03-01T06:44:25.073Z,-0.77
2023-03-01T06:45:25.067Z,-0.77
2023-03-01T06:46:25.136Z,-0.75
2023-03-01T06:47:25.048Z,-0.72
2023-03-01T06:48:25.037Z,-0.80
2023-03-01T06:49:25.028Z,-0.77
2023-03-01T06:50:25.034Z,-0.72
2023-03-01T06:51:25.015Z,-0.65
2023-03-01T06:52:25.002Z,-0.67
2023-03-01T06:53:25.009Z,-0.67
2023-03-01T06:54:24.982Z,-0.68
2023-03-01T06:55:24.972Z,-0.65
2023-03-01T06:56:24.960Z,-0.65
2023-03-01T06:57:24.951Z,-0.65
2023-03-01T06:58:24.948Z,-0.54
2023-03-01T06:59:25.012Z,-0.61
2023-03-01T07:00:24.929Z,-0.54
2023-03-01T07:01:24.964Z,-0.56
2023-03-01T07:02:24.997Z,-0.52
2023-03-01T07:03:24.897Z,-0.49
2023-03-01T07:04:24.885Z,-0.54
2023-03-01T07:05:24.879Z,-0.44
2023-03-01T07:06:24.866Z,-0.43
2023-03-01T07:07:24.858Z,-0.47
2023-03-01T07:08:24.850Z,-0.49
2023-03-01T07:09:24.858Z,-0.43
2023-03-01T07:10:24.827Z,-0.44
2023-03-01T07:11:24.820Z,-0.39
2023-03-01T07:12:24.823Z,-0.29
2023-03-01T07:13:24.817Z,-0.34
2023-03-01T07:14:24.796Z,-0.32
2023-03-01T07:15:24.792Z,-0.31
2023-03-01T07:16:24.847Z,-0.31
2023-03-01T07:17:24.780Z,-0.25
2023-03-01T07:18:24.777Z,-0.20
2023-03-01T07:19:24.762Z,-0.23
2023-03-01T07:20:24.745Z,-0.26
2023-03-01T07:21:24.735Z,-0.25
2023-03-01T07:22:24.736Z,-0.15
2023-03-01T07:23:24.719Z,-0.07
2023-03-01T07:24:24.715Z,-0.14
2023-03-01T07:25:24.712Z,-0.15
2023-03-01T07:26:26.234Z,-0.14
2023-03-01T07:27:24.676Z,-0.06
2023-03-01T07:28:24.665Z,0.00
2023-03-01T07:29:25.383Z,0.01
2023-03-01T07:30:24.653Z,0.03
2023-03-01T07:31:24.643Z,0.04
2023-03-01T07:32:24.758Z,0.15
2023-03-01T07:33:24.685Z,0.12
2023-03-01T07:34:24.612Z,0.18
2023-03-01T07:35:24.701Z,0.15
2023-03-01T07:36:24.599Z,0.11
2023-03-01T07:37:24.592Z,0.18
2023-03-01T07:38:24.576Z,0.26
2023-03-01T07:39:24.580Z,0.26
2023-03-01T07:40:24.566Z,0.23
2023-03-01T07:41:24.684Z,0.25
2023-03-01T07:42:24.541Z,0.34
2023-03-01T07:43:24.534Z,0.34
2023-03-01T07:44:24.524Z,0.34
2023-03-01T07:45:24.568Z,0.36
2023-03-01T07:46:24.521Z,0.44
2023-03-01T07:47:24.500Z,0.47
2023-03-01T07:48:24.491Z,0.52
2023-03-01T07:49:24.490Z,0.62
2023-03-01T07:50:24.485Z,0.58
2023-03-01T07:51:24.468Z,0.56
2023-03-01T07:52:24.457Z,0.73
2023-03-01T07:53:24.451Z,0.69
2023-03-01T07:54:24.439Z,0.78
2023-03-01T07:55:24.430Z,0.87
2023-03-01T07:56:24.439Z,0.86
2023-03-01T07:57:24.434Z,0.98
2023-03-01T07:58:24.417Z,0.99
2023-03-01T07:59:24.395Z,1.17
2023-03-01T08:00:24.387Z,1.10
2023-03-01T08:01:24.376Z,1.30
2023-03-01T08:02:24.368Z,1.32
2023-03-01T08:03:24.364Z,1.56
2023-03-01T08:04:24.349Z,1.68
2023-03-01T08:05:24.343Z,1.88
2023-03-01T08:06:24.333Z,2.10
2023-03-01T08:07:24.330Z,2.32
2023-03-01T08:08:24.328Z,2.46
2023-03-01T08:09:24.314Z,2.69
2023-03-01T08:10:24.297Z,2.90
2023-03-01T08:11:24.359Z,2.93
2023-03-01T08:12:24.483Z,3.07
2023-03-01T08:13:24.295Z,3.28
2023-03-01T08:14:24.274Z,3.47
2023-03-01T08:15:24.261Z,3.63
2023-03-01T08:16:24.351Z,3.73
2023-03-01T08:17:24.242Z,3.86
2023-03-01T08:18:24.233Z,4.12
2023-03-01T08:19:24.232Z,4.22
2023-03-01T08:20:24.218Z,4.30
2023-03-01T08:21:24.209Z,4.38
2023-03-01T08:22:24.206Z,4.48
2023-03-01T08:23:24.195Z,4.53
2023-03-01T08:24:24.184Z,4.66
2023-03-01T08:25:24.180Z,4.71
2023-03-01T08:26:24.171Z,4.75
2023-03-01T08:27:24.691Z,4.87
2023-03-01T08:28:24.153Z,4.78
2023-03-01T08:29:24.167Z,4.93
2023-03-01T08:30:24.159Z,4.90
2023-03-01T08:31:24.182Z,4.96
2023-03-01T08:32:24.197Z,4.86
2023-03-01T08:33:24.177Z,4.87
2023-03-01T08:34:24.108Z,4.87
2023-03-01T08:35:24.124Z,4.75
2023-03-01T08:36:24.099Z,4.86
2023-03-01T08:37:24.092Z,4.68
2023-03-01T08:38:24.077Z,4.70
2023-03-01T08:39:24.156Z,4.68
2023-03-01T08:40:24.060Z,4.59
2023-03-01T08:41:24.055Z,4.52
2023-03-01T08:42:24.073Z,4.42
2023-03-01T08:43:25.482Z,4.48
2023-03-01T08:44:24.035Z,4.48
2023-03-01T08:45:24.048Z,4.35
2023-03-01T08:46:24.014Z,4.41
2023-03-01T08:47:24.008Z,4.26
2023-03-01T08:48:23.998Z,3.98
2023-03-01T08:49:23.992Z,3.81
2023-03-01T08:50:24.078Z,3.73
2023-03-01T08:51:23.978Z,3.62
2023-03-01T08:52:23.968Z,3.65
2023-03-01T08:53:23.994Z,3.63
2023-03-01T08:54:23.950Z,3.47
2023-03-01T08:55:23.962Z,3.48
2023-03-01T08:56:23.941Z,3.44
2023-03-01T08:57:23.931Z,3.36
2023-03-01T08:58:23.921Z,3.32
2023-03-01T08:59:23.916Z,3.29
2023-03-01T09:00:23.909Z,3.16
2023-03-01T09:01:23.922Z,3.11
2023-03-01T09:02:23.969Z,3.10
2023-03-01T09:03:23.889Z,2.98
2023-03-01T09:04:23.879Z,3.04
2023-03-01T09:05:23.869Z,3.03
2023-03-01T09:06:23.876Z,2.98
2023-03-01T09:07:23.857Z,3.00
2023-03-01T09:08:23.897Z,3.00
2023-03-01T09:09:23.838Z,3.01
2023-03-01T09:10:23.871Z,3.08
2023-03-01T09:11:23.823Z,3.03
2023-03-01T09:12:23.818Z,3.07
2023-03-01T09:13:23.809Z,3.07
2023-03-01T09:14:23.804Z,3.11
2023-03-01T09:15:23.791Z,3.23
2023-03-01T09:16:23.867Z,3.07
2023-03-01T09:17:23.799Z,3.18
2023-03-01T09:18:23.769Z,3.14
2023-03-01T09:19:25.728Z,3.08
2023-03-01T09:20:23.753Z,3.14
2023-03-01T09:21:37.650Z,3.14
2023-03-01T09:22:23.739Z,3.22
2023-03-01T09:23:23.733Z,3.10
2023-03-01T09:24:23.737Z,3.11
2023-03-01T09:25:23.718Z,3.04
2023-03-01T09:26:23.710Z,3.18
2023-03-01T09:27:23.705Z,3.10
2023-03-01T09:28:29.673Z,3.13
2023-03-01T09:29:23.716Z,3.00
2023-03-01T09:30:23.685Z,3.11
2023-03-01T09:31:23.677Z,3.11
2023-03-01T09:32:23.709Z,3.10
2023-03-01T09:33:23.693Z,3.14
2023-03-01T09:34:23.653Z,3.22
2023-03-01T09:35:23.642Z,3.22
2023-03-01T09:36:23.639Z,3.32
2023-03-01T09:37:23.625Z,3.34
2023-03-01T09:38:25.906Z,3.47
2023-03-01T09:39:23.616Z,3.45
2023-03-01T09:40:23.603Z,3.55
2023-03-01T09:41:23.600Z,3.59
2023-03-01T09:42:23.591Z,3.65
2023-03-01T09:43:23.581Z,3.56
2023-03-01T09:44:23.571Z,3.66
2023-03-01T09:45:23.567Z,3.77
2023-03-01T09:46:23.580Z,3.65
2023-03-01T09:47:23.552Z,3.74
2023-03-01T09:48:23.545Z,3.70
2023-03-01T09:49:23.553Z,3.59
2023-03-01T09:50:23.530Z,3.59
2023-03-01T09:51:23.518Z,3.65
2023-03-01T09:52:23.512Z,3.65
2023-03-01T09:53:23.503Z,3.59
2023-03-01T09:54:23.500Z,3.60
2023-03-01T09:55:23.491Z,3.59
2023-03-01T09:56:23.484Z,3.66
2023-03-01T09:57:23.482Z,3.65
2023-03-01T09:58:23.668Z,3.69
2023-03-01T09:59:23.468Z,3.66
2023-03-01T10:00:23.449Z,3.74
2023-03-01T10:01:23.458Z,3.80
2023-03-01T10:02:23.440Z,3.73
2023-03-01T10:03:23.430Z,3.74
2023-03-01T10:04:23.531Z,3.74
2023-03-01T10:05:23.440Z,3.70
2023-03-01T10:06:34.468Z,3.63
2023-03-01T10:07:23.407Z,3.51
2023-03-01T10:08:23.391Z,3.47
2023-03-01T10:09:23.391Z,3.48
2023-03-01T10:10:23.374Z,3.48
2023-03-01T10:11:25.240Z,3.47
2023-03-01T10:12:23.435Z,3.50
2023-03-01T10:13:23.354Z,3.50
2023-03-01T10:14:23.347Z,3.48
2023-03-01T10:15:23.338Z,3.48
2023-03-01T10:16:23.330Z,3.45
2023-03-01T10:17:23.324Z,3.53
2023-03-01T10:18:23.315Z,3.55
2023-03-01T10:19:23.310Z,3.60
2023-03-01T10:20:23.304Z,3.65
2023-03-01T10:21:23.316Z,3.56
2023-03-01T10:22:23.298Z,3.73
2023-03-01T10:23:23.280Z,3.73
2023-03-01T10:24:23.273Z,3.78
2023-03-01T10:25:23.263Z,3.78
2023-03-01T10:26:23.265Z,3.78
2023-03-01T10:27:23.252Z,3.83
2023-03-01T10:28:23.241Z,3.84
2023-03-01T10:29:23.266Z,3.99
2023-03-01T10:30:23.224Z,3.96
2023-03-01T10:31:23.294Z,3.88
2023-03-01T10:32:25.056Z,4.01
2023-03-01T10:33:23.207Z,3.81
2023-03-01T10:34:23.196Z,3.86
2023-03-01T10:35:23.190Z,3.95
2023-03-01T10:36:23.189Z,3.83
2023-03-01T10:37:23.267Z,3.92
2023-03-01T10:38:23.173Z,3.78
2023-03-01T10:39:23.157Z,3.80
2023-03-01T10:40:23.164Z,3.73
2023-03-01T10:41:23.142Z,3.78
2023-03-01T10:42:23.138Z,3.76
2023-03-01T10:43:23.126Z,3.73
2023-03-01T10:44:23.123Z,3.78
2023-03-01T10:45:25.182Z,3.84
2023-03-01T10:46:23.277Z,3.80
2023-03-01T10:47:23.098Z,3.84
2023-03-01T10:48:23.095Z,3.94
2023-03-01T10:49:23.080Z,3.88
2023-03-01T10:50:23.074Z,3.99
2023-03-01T10:51:23.067Z,3.99
2023-03-01T10:52:23.062Z,4.05
2023-03-01T10:53:23.081Z,4.06
2023-03-01T10:54:23.063Z,4.16
2023-03-01T10:55:23.047Z,4.05
2023-03-01T10:56:23.033Z,4.17
2023-03-01T10:57:23.020Z,4.06
2023-03-01T10:58:23.018Z,4.06
2023-03-01T10:59:23.010Z,4.06
2023-03-01T11:00:23.011Z,4.02
2023-03-01T11:01:23.070Z,4.16
2023-03-01T11:02:25.411Z,4.17
2023-03-01T11:03:22.981Z,4.12
2023-03-01T11:04:23.053Z,4.17
2023-03-01T11:05:22.974Z,4.13
2023-03-01T11:06:22.986Z,4.17
2023-03-01T11:07:22.950Z,4.05
2023-03-01T11:08:22.961Z,4.16
2023-03-01T11:09:22.957Z,4.16
2023-03-01T11:10:22.933Z,4.19
2023-03-01T11:11:22.922Z,4.19
2023-03-01T11:12:22.931Z,4.19
2023-03-01T11:13:22.903Z,4.22
2023-03-01T11:14:27.160Z,4.31
2023-03-01T11:15:22.891Z,4.30
2023-03-01T11:16:23.057Z,4.23
2023-03-01T11:17:22.894Z,4.24
2023-03-01T11:18:30.942Z,4.26
2023-03-01T11:19:22.858Z,4.30
2023-03-01T11:20:24.675Z,4.31
2023-03-01T11:21:22.849Z,4.28
2023-03-01T11:22:22.934Z,4.24
2023-03-01T11:23:22.841Z,4.31
2023-03-01T11:24:22.832Z,4.26
2023-03-01T11:25:22.854Z,4.34
2023-03-01T11:26:22.808Z,4.22
2023-03-01T11:27:22.801Z,4.17
2023-03-01T11:28:22.821Z,4.17
2023-03-01T11:29:22.785Z,4.26
2023-03-01T11:30:22.790Z,4.31
2023-03-01T11:31:22.837Z,4.40
2023-03-01T11:32:22.888Z,4.40
2023-03-01T11:33:22.753Z,4.34
2023-03-01T11:34:22.758Z,4.37
2023-03-01T11:35:22.744Z,4.42
2023-03-01T11:36:22.801Z,4.41
2023-03-01T11:37:22.724Z,4.45
2023-03-01T11:38:22.724Z,4.48
2023-03-01T11:39:22.712Z,4.41
2023-03-01T11:40:22.729Z,4.41
2023-03-01T11:41:22.767Z,4.42
2023-03-01T11:42:22.686Z,4.49
2023-03-01T11:43:22.680Z,4.42
2023-03-01T11:44:22.673Z,4.58
2023-03-01T11:45:22.665Z,4.68
2023-03-01T11:46:22.705Z,4.71
2023-03-01T11:47:22.872Z,4.74
2023-03-01T11:48:22.644Z,4.71
2023-03-01T11:49:22.634Z,4.67
2023-03-01T11:50:22.652Z,4.68
2023-03-01T11:51:22.622Z,4.60
2023-03-01T11:52:22.638Z,4.67
2023-03-01T11:53:22.620Z,4.62
2023-03-01T11:54:22.606Z,4.70
2023-03-01T11:55:22.592Z,4.53
2023-03-01T11:56:23.950Z,4.66
2023-03-01T11:57:28.836Z,4.77
2023-03-01T11:58:22.571Z,4.73
2023-03-01T11:59:22.567Z,4.77
2023-03-01T12:00:22.576Z,4.71
2023-03-01T12:01:22.591Z,4.71
2023-03-01T12:02:22.609Z,4.74
2023-03-01T12:03:22.540Z,4.68
2023-03-01T12:04:22.584Z,4.71
2023-03-01T12:05:22.541Z,4.75
2023-03-01T12:06:22.510Z,4.84
2023-03-01T12:07:22.504Z,4.97
2023-03-01T12:08:22.502Z,5.07
2023-03-01T12:09:22.501Z,5.10
2023-03-01T12:10:22.487Z,5.08
2023-03-01T12:11:22.478Z,5.04
2023-03-01T12:12:22.470Z,5.12
2023-03-01T12:13:22.545Z,5.04
2023-03-01T12:14:22.455Z,5.00
2023-03-01T12:15:22.443Z,4.96
2023-03-01T12:16:37.512Z,4.99
2023-03-01T12:17:22.429Z,4.97
2023-03-01T12:18:22.774Z,4.92
2023-03-01T12:19:22.419Z,4.97
2023-03-01T12:20:22.418Z,4.97
2023-03-01T12:21:22.400Z,5.05
2023-03-01T12:22:22.398Z,5.14
2023-03-01T12:23:22.387Z,5.12
2023-03-01T12:24:22.381Z,5.11
2023-03-01T12:25:22.369Z,5.12
2023-03-01T12:26:22.364Z,5.20
2023-03-01T12:27:22.362Z,5.20
2023-03-01T12:28:22.350Z,5.29
2023-03-01T12:29:22.358Z,5.30
2023-03-01T12:30:22.336Z,5.38
2023-03-01T12:31:22.386Z,5.39
2023-03-01T12:32:22.414Z,5.32
2023-03-01T12:33:22.319Z,5.30
2023-03-01T12:34:22.308Z,5.32
2023-03-01T12:35:22.305Z,5.28
2023-03-01T12:36:22.303Z,5.33
2023-03-01T12:37:22.282Z,5.33
2023-03-01T12:38:22.275Z,5.26
2023-03-01T12:39:22.274Z,5.25
2023-03-01T12:40:22.306Z,5.21
2023-03-01T12:41:22.256Z,5.26
2023-03-01T12:42:22.249Z,5.41
2023-03-01T12:43:22.251Z,5.43
2023-03-01T12:44:22.235Z,5.44
2023-03-01T12:45:22.240Z,5.53
2023-03-01T12:46:22.225Z,5.56
2023-03-01T12:47:22.207Z,5.53
2023-03-01T12:48:22.204Z,5.39
2023-03-01T12:49:22.191Z,5.51
2023-03-01T12:50:22.188Z,5.50
2023-03-01T12:51:22.184Z,5.61
2023-03-01T12:52:22.178Z,5.65
2023-03-01T12:53:22.164Z,5.56
2023-03-01T12:54:22.169Z,5.57
2023-03-01T12:55:22.150Z,5.54
2023-03-01T12:56:22.174Z,5.62
2023-03-01T12:57:22.130Z,5.62
2023-03-01T12:58:22.145Z,5.59
2023-03-01T12:59:22.117Z,5.62
2023-03-01T13:00:22.130Z,5.53
2023-03-01T13:01:22.346Z,5.47
2023-03-01T13:02:22.099Z,5.39
2023-03-01T13:03:22.142Z,5.50
2023-03-01T13:04:22.182Z,5.53
2023-03-01T13:05:22.074Z,5.59